sensor_id;sensor_type;location;lat;lon;timestamp;P1;durP1;ratioP1;P2;durP2;ratioP2
6823;SDS011;58633;49.470;11.004;2023-05-07T00:00:26;4.55;;;3.13;;
6823;SDS011;58633;49.470;11.004;2023-05-07T00:02:52;3.33;;;3.03;;
6823;SDS011;58633;49.470;11.004;2023-05-07T00:05:17;5.00;;;3.00;;
6823;SDS011;58633;49.470;11.004;2023-05-07T00:07:43;3.03;;;2.80;;
6823;SDS011;58633;49.470;11.004;2023-05-07T00:10:09;5.32;;;2.80;;
6823;SDS011;58633;49.470;11.004;2023-05-07T00:12:35;6.03;;;3.08;;
6823;SDS011;58633;49.470;11.004;2023-05-07T00:15:04;4.35;;;2.50;;
6823;SDS011;58633;49.470;11.004;2023-05-07T00:17:31;2.83;;;2.50;;
6823;SDS011;58633;49.470;11.004;2023-05-07T00:19:57;2.75;;;2.40;;
6823;SDS011;58633;49.470;11.004;2023-05-07T00:22:23;3.63;;;2.50;;
6823;SDS011;58633;49.470;11.004;2023-05-07T00:24:48;2.75;;;2.55;;
6823;SDS011;58633;49.470;11.004;2023-05-07T00:27:14;3.83;;;2.28;;
6823;SDS011;58633;49.470;11.004;2023-05-07T00:29:40;2.80;;;2.55;;
6823;SDS011;58633;49.470;11.004;2023-05-07T00:32:06;3.95;;;2.30;;
6823;SDS011;58633;49.470;11.004;2023-05-07T00:34:31;2.47;;;2.30;;
6823;SDS011;58633;49.470;11.004;2023-05-07T00:36:57;2.35;;;2.20;;
6823;SDS011;58633;49.470;11.004;2023-05-07T00:39:22;5.22;;;2.60;;
6823;SDS011;58633;49.470;11.004;2023-05-07T00:41:48;3.33;;;2.20;;
6823;SDS011;58633;49.470;11.004;2023-05-07T00:44:13;2.80;;;2.50;;
6823;SDS011;58633;49.470;11.004;2023-05-07T00:46:39;3.13;;;2.50;;
6823;SDS011;58633;49.470;11.004;2023-05-07T00:49:05;3.70;;;2.60;;
6823;SDS011;58633;49.470;11.004;2023-05-07T00:51:31;4.57;;;2.50;;
6823;SDS011;58633;49.470;11.004;2023-05-07T00:53:57;3.10;;;2.80;;
6823;SDS011;58633;49.470;11.004;2023-05-07T00:56:24;2.88;;;2.50;;
6823;SDS011;58633;49.470;11.004;2023-05-07T00:58:50;3.80;;;2.72;;
6823;SDS011;58633;49.470;11.004;2023-05-07T01:01:16;2.83;;;2.50;;
6823;SDS011;58633;49.470;11.004;2023-05-07T01:03:42;3.42;;;2.50;;
6823;SDS011;58633;49.470;11.004;2023-05-07T01:06:08;2.58;;;2.38;;
6823;SDS011;58633;49.470;11.004;2023-05-07T01:08:36;2.60;;;2.40;;
6823;SDS011;58633;49.470;11.004;2023-05-07T01:11:04;5.18;;;3.25;;
6823;SDS011;58633;49.470;11.004;2023-05-07T01:13:31;3.75;;;2.38;;
6823;SDS011;58633;49.470;11.004;2023-05-07T01:15:57;3.70;;;2.20;;
6823;SDS011;58633;49.470;11.004;2023-05-07T01:18:22;3.95;;;2.25;;
6823;SDS011;58633;49.470;11.004;2023-05-07T01:20:48;3.45;;;2.42;;
6823;SDS011;58633;49.470;11.004;2023-05-07T01:23:14;3.03;;;2.50;;
6823;SDS011;58633;49.470;11.004;2023-05-07T01:25:40;2.75;;;2.17;;
6823;SDS011;58633;49.470;11.004;2023-05-07T01:28:06;3.42;;;2.50;;
6823;SDS011;58633;49.470;11.004;2023-05-07T01:30:31;2.60;;;2.40;;
6823;SDS011;58633;49.470;11.004;2023-05-07T01:33:04;3.17;;;2.55;;
6823;SDS011;58633;49.470;11.004;2023-05-07T01:35:39;3.65;;;2.45;;
6823;SDS011;58633;49.470;11.004;2023-05-07T01:38:08;2.63;;;2.42;;
6823;SDS011;58633;49.470;11.004;2023-05-07T01:40:34;3.00;;;2.42;;
6823;SDS011;58633;49.470;11.004;2023-05-07T01:43:03;3.17;;;2.40;;
6823;SDS011;58633;49.470;11.004;2023-05-07T01:45:30;2.40;;;2.30;;
6823;SDS011;58633;49.470;11.004;2023-05-07T01:47:56;2.85;;;2.50;;
6823;SDS011;58633;49.470;11.004;2023-05-07T01:50:23;2.80;;;2.60;;
6823;SDS011;58633;49.470;11.004;2023-05-07T01:52:51;2.90;;;2.40;;
6823;SDS011;58633;49.470;11.004;2023-05-07T01:55:17;4.28;;;2.60;;
6823;SDS011;58633;49.470;11.004;2023-05-07T01:57:42;2.72;;;2.50;;
6823;SDS011;58633;49.470;11.004;2023-05-07T02:00:08;2.90;;;2.60;;
6823;SDS011;58633;49.470;11.004;2023-05-07T02:02:34;2.95;;;2.75;;
6823;SDS011;58633;49.470;11.004;2023-05-07T02:05:00;3.10;;;2.90;;
6823;SDS011;58633;49.470;11.004;2023-05-07T02:07:28;2.60;;;2.40;;
6823;SDS011;58633;49.470;11.004;2023-05-07T02:09:54;3.13;;;2.90;;
6823;SDS011;58633;49.470;11.004;2023-05-07T02:12:20;3.05;;;2.85;;
6823;SDS011;58633;49.470;11.004;2023-05-07T02:14:46;3.75;;;2.88;;
6823;SDS011;58633;49.470;11.004;2023-05-07T02:17:12;2.63;;;2.42;;
6823;SDS011;58633;49.470;11.004;2023-05-07T02:19:37;3.30;;;3.00;;
6823;SDS011;58633;49.470;11.004;2023-05-07T02:22:03;2.90;;;2.70;;
6823;SDS011;58633;49.470;11.004;2023-05-07T02:24:28;2.90;;;2.70;;
6823;SDS011;58633;49.470;11.004;2023-05-07T02:26:54;3.85;;;2.90;;
6823;SDS011;58633;49.470;11.004;2023-05-07T02:29:19;3.00;;;2.80;;
6823;SDS011;58633;49.470;11.004;2023-05-07T02:31:45;6.95;;;2.90;;
6823;SDS011;58633;49.470;11.004;2023-05-07T02:34:10;3.72;;;3.00;;
6823;SDS011;58633;49.470;11.004;2023-05-07T02:36:36;3.95;;;2.80;;
6823;SDS011;58633;49.470;11.004;2023-05-07T02:39:01;4.05;;;2.97;;
6823;SDS011;58633;49.470;11.004;2023-05-07T02:41:27;3.03;;;2.83;;
6823;SDS011;58633;49.470;11.004;2023-05-07T02:43:53;3.33;;;2.92;;
6823;SDS011;58633;49.470;11.004;2023-05-07T02:46:18;3.25;;;2.95;;
6823;SDS011;58633;49.470;11.004;2023-05-07T02:48:44;3.80;;;3.20;;
6823;SDS011;58633;49.470;11.004;2023-05-07T02:51:10;3.63;;;3.30;;
6823;SDS011;58633;49.470;11.004;2023-05-07T02:53:36;3.65;;;3.35;;
6823;SDS011;58633;49.470;11.004;2023-05-07T02:56:01;3.33;;;3.03;;
6823;SDS011;58633;49.470;11.004;2023-05-07T02:58:27;3.58;;;3.28;;
6823;SDS011;58633;49.470;11.004;2023-05-07T03:00:53;3.30;;;3.10;;
6823;SDS011;58633;49.470;11.004;2023-05-07T03:03:22;4.88;;;3.50;;
6823;SDS011;58633;49.470;11.004;2023-05-07T03:05:47;4.47;;;3.50;;
6823;SDS011;58633;49.470;11.004;2023-05-07T03:08:13;3.70;;;3.40;;
6823;SDS011;58633;49.470;11.004;2023-05-07T03:10:39;4.88;;;3.30;;
6823;SDS011;58633;49.470;11.004;2023-05-07T03:13:05;4.03;;;3.28;;
6823;SDS011;58633;49.470;11.004;2023-05-07T03:15:30;3.80;;;3.40;;
6823;SDS011;58633;49.470;11.004;2023-05-07T03:17:56;4.07;;;3.78;;
6823;SDS011;58633;49.470;11.004;2023-05-07T03:20:22;4.03;;;3.67;;
6823;SDS011;58633;49.470;11.004;2023-05-07T03:22:47;4.10;;;3.80;;
6823;SDS011;58633;49.470;11.004;2023-05-07T03:25:13;3.97;;;3.60;;
6823;SDS011;58633;49.470;11.004;2023-05-07T03:27:39;3.88;;;3.58;;
6823;SDS011;58633;49.470;11.004;2023-05-07T03:30:07;5.18;;;4.07;;
6823;SDS011;58633;49.470;11.004;2023-05-07T03:32:33;5.60;;;4.00;;
6823;SDS011;58633;49.470;11.004;2023-05-07T03:35:00;4.47;;;3.80;;
6823;SDS011;58633;49.470;11.004;2023-05-07T03:37:26;4.40;;;4.05;;
6823;SDS011;58633;49.470;11.004;2023-05-07T03:39:51;5.93;;;4.47;;
6823;SDS011;58633;49.470;11.004;2023-05-07T03:42:17;4.75;;;4.35;;
6823;SDS011;58633;49.470;11.004;2023-05-07T03:44:42;6.60;;;4.30;;
6823;SDS011;58633;49.470;11.004;2023-05-07T03:47:08;5.03;;;4.15;;
6823;SDS011;58633;49.470;11.004;2023-05-07T03:49:35;5.20;;;4.70;;
6823;SDS011;58633;49.470;11.004;2023-05-07T03:52:01;5.47;;;4.78;;
6823;SDS011;58633;49.470;11.004;2023-05-07T03:54:26;4.90;;;4.50;;
6823;SDS011;58633;49.470;11.004;2023-05-07T03:56:52;4.88;;;4.38;;
6823;SDS011;58633;49.470;11.004;2023-05-07T03:59:17;5.30;;;4.75;;
6823;SDS011;58633;49.470;11.004;2023-05-07T04:01:43;5.25;;;4.75;;
6823;SDS011;58633;49.470;11.004;2023-05-07T04:04:09;5.47;;;4.75;;
6823;SDS011;58633;49.470;11.004;2023-05-07T04:06:35;6.82;;;4.47;;
6823;SDS011;58633;49.470;11.004;2023-05-07T04:09:00;6.00;;;4.47;;
6823;SDS011;58633;49.470;11.004;2023-05-07T04:11:26;5.10;;;4.60;;
6823;SDS011;58633;49.470;11.004;2023-05-07T04:13:51;5.28;;;4.75;;
6823;SDS011;58633;49.470;11.004;2023-05-07T04:16:17;5.53;;;5.00;;
6823;SDS011;58633;49.470;11.004;2023-05-07T04:18:43;6.68;;;4.80;;
6823;SDS011;58633;49.470;11.004;2023-05-07T04:21:15;5.30;;;4.80;;
6823;SDS011;58633;49.470;11.004;2023-05-07T04:23:42;4.90;;;4.50;;
6823;SDS011;58633;49.470;11.004;2023-05-07T04:26:07;5.50;;;4.82;;
6823;SDS011;58633;49.470;11.004;2023-05-07T04:28:34;4.68;;;4.18;;
6823;SDS011;58633;49.470;11.004;2023-05-07T04:31:00;6.05;;;5.00;;
6823;SDS011;58633;49.470;11.004;2023-05-07T04:33:25;5.47;;;4.97;;
6823;SDS011;58633;49.470;11.004;2023-05-07T04:35:51;5.95;;;5.10;;
6823;SDS011;58633;49.470;11.004;2023-05-07T04:38:16;5.43;;;4.93;;
6823;SDS011;58633;49.470;11.004;2023-05-07T04:40:43;5.53;;;4.95;;
6823;SDS011;58633;49.470;11.004;2023-05-07T04:43:09;5.25;;;4.75;;
6823;SDS011;58633;49.470;11.004;2023-05-07T04:45:35;5.43;;;4.97;;
6823;SDS011;58633;49.470;11.004;2023-05-07T04:48:01;6.32;;;5.20;;
6823;SDS011;58633;49.470;11.004;2023-05-07T04:50:27;5.88;;;5.28;;
6823;SDS011;58633;49.470;11.004;2023-05-07T04:52:53;5.50;;;5.00;;
6823;SDS011;58633;49.470;11.004;2023-05-07T04:55:18;6.57;;;5.65;;
6823;SDS011;58633;49.470;11.004;2023-05-07T04:57:44;5.97;;;5.38;;
6823;SDS011;58633;49.470;11.004;2023-05-07T05:00:10;6.03;;;5.53;;
6823;SDS011;58633;49.470;11.004;2023-05-07T05:02:39;8.07;;;5.97;;
6823;SDS011;58633;49.470;11.004;2023-05-07T05:05:04;6.05;;;5.45;;
6823;SDS011;58633;49.470;11.004;2023-05-07T05:07:30;6.53;;;5.57;;
6823;SDS011;58633;49.470;11.004;2023-05-07T05:09:56;6.82;;;5.75;;
6823;SDS011;58633;49.470;11.004;2023-05-07T05:12:22;7.68;;;5.90;;
6823;SDS011;58633;49.470;11.004;2023-05-07T05:14:48;7.60;;;5.90;;
6823;SDS011;58633;49.470;11.004;2023-05-07T05:17:14;8.25;;;6.15;;
6823;SDS011;58633;49.470;11.004;2023-05-07T05:19:39;6.85;;;6.15;;
6823;SDS011;58633;49.470;11.004;2023-05-07T05:22:05;7.40;;;6.03;;
6823;SDS011;58633;49.470;11.004;2023-05-07T05:24:31;7.00;;;5.90;;
6823;SDS011;58633;49.470;11.004;2023-05-07T05:26:57;7.68;;;6.30;;
6823;SDS011;58633;49.470;11.004;2023-05-07T05:29:24;8.40;;;6.05;;
6823;SDS011;58633;49.470;11.004;2023-05-07T05:31:50;6.70;;;6.10;;
6823;SDS011;58633;49.470;11.004;2023-05-07T05:34:15;6.85;;;6.20;;
6823;SDS011;58633;49.470;11.004;2023-05-07T05:36:42;7.07;;;6.03;;
6823;SDS011;58633;49.470;11.004;2023-05-07T05:39:08;7.30;;;6.28;;
6823;SDS011;58633;49.470;11.004;2023-05-07T05:41:33;6.28;;;5.68;;
6823;SDS011;58633;49.470;11.004;2023-05-07T05:43:59;8.45;;;6.18;;
6823;SDS011;58633;49.470;11.004;2023-05-07T05:46:25;7.88;;;6.18;;
6823;SDS011;58633;49.470;11.004;2023-05-07T05:48:51;8.00;;;6.10;;
6823;SDS011;58633;49.470;11.004;2023-05-07T05:51:16;7.65;;;5.75;;
6823;SDS011;58633;49.470;11.004;2023-05-07T05:53:42;8.85;;;6.95;;
6823;SDS011;58633;49.470;11.004;2023-05-07T05:56:08;7.07;;;6.07;;
6823;SDS011;58633;49.470;11.004;2023-05-07T05:58:34;10.40;;;6.40;;
6823;SDS011;58633;49.470;11.004;2023-05-07T06:00:59;7.32;;;5.93;;
6823;SDS011;58633;49.470;11.004;2023-05-07T06:03:27;8.13;;;6.70;;
6823;SDS011;58633;49.470;11.004;2023-05-07T06:05:53;6.72;;;5.85;;
6823;SDS011;58633;49.470;11.004;2023-05-07T06:08:18;7.18;;;6.40;;
6823;SDS011;58633;49.470;11.004;2023-05-07T06:10:44;7.68;;;6.72;;
6823;SDS011;58633;49.470;11.004;2023-05-07T06:13:10;6.55;;;5.95;;
6823;SDS011;58633;49.470;11.004;2023-05-07T06:15:36;7.07;;;6.35;;
6823;SDS011;58633;49.470;11.004;2023-05-07T06:18:02;7.90;;;6.53;;
6823;SDS011;58633;49.470;11.004;2023-05-07T06:20:27;6.72;;;6.03;;
6823;SDS011;58633;49.470;11.004;2023-05-07T06:22:53;6.25;;;5.65;;
6823;SDS011;58633;49.470;11.004;2023-05-07T06:25:18;7.43;;;6.25;;
6823;SDS011;58633;49.470;11.004;2023-05-07T06:27:44;6.65;;;5.97;;
6823;SDS011;58633;49.470;11.004;2023-05-07T06:30:11;7.03;;;6.32;;
6823;SDS011;58633;49.470;11.004;2023-05-07T06:32:36;7.10;;;6.32;;
6823;SDS011;58633;49.470;11.004;2023-05-07T06:35:02;7.38;;;6.28;;
6823;SDS011;58633;49.470;11.004;2023-05-07T06:37:28;6.50;;;5.75;;
6823;SDS011;58633;49.470;11.004;2023-05-07T06:39:54;6.32;;;5.72;;
6823;SDS011;58633;49.470;11.004;2023-05-07T06:42:19;7.35;;;6.28;;
6823;SDS011;58633;49.470;11.004;2023-05-07T06:44:45;8.13;;;6.50;;
6823;SDS011;58633;49.470;11.004;2023-05-07T06:47:11;7.60;;;5.88;;
6823;SDS011;58633;49.470;11.004;2023-05-07T06:49:36;9.38;;;6.07;;
6823;SDS011;58633;49.470;11.004;2023-05-07T06:52:02;6.50;;;5.90;;
6823;SDS011;58633;49.470;11.004;2023-05-07T06:54:28;7.55;;;6.18;;
6823;SDS011;58633;49.470;11.004;2023-05-07T06:56:54;6.82;;;5.78;;
6823;SDS011;58633;49.470;11.004;2023-05-07T06:59:19;6.55;;;5.95;;
6823;SDS011;58633;49.470;11.004;2023-05-07T07:01:45;6.55;;;5.90;;
6823;SDS011;58633;49.470;11.004;2023-05-07T07:04:10;7.32;;;6.05;;
6823;SDS011;58633;49.470;11.004;2023-05-07T07:06:36;8.52;;;6.07;;
6823;SDS011;58633;49.470;11.004;2023-05-07T07:09:01;7.00;;;6.30;;
6823;SDS011;58633;49.470;11.004;2023-05-07T07:11:27;7.97;;;5.72;;
6823;SDS011;58633;49.470;11.004;2023-05-07T07:13:52;6.70;;;6.00;;
6823;SDS011;58633;49.470;11.004;2023-05-07T07:16:19;7.07;;;6.10;;
6823;SDS011;58633;49.470;11.004;2023-05-07T07:18:46;7.95;;;6.00;;
6823;SDS011;58633;49.470;11.004;2023-05-07T07:21:11;6.82;;;6.13;;
6823;SDS011;58633;49.470;11.004;2023-05-07T07:23:37;6.38;;;5.78;;
6823;SDS011;58633;49.470;11.004;2023-05-07T07:26:03;5.82;;;5.30;;
6823;SDS011;58633;49.470;11.004;2023-05-07T07:28:28;6.82;;;5.45;;
6823;SDS011;58633;49.470;11.004;2023-05-07T07:30:54;7.38;;;5.90;;
6823;SDS011;58633;49.470;11.004;2023-05-07T07:33:19;7.20;;;5.90;;
6823;SDS011;58633;49.470;11.004;2023-05-07T07:35:45;6.32;;;5.72;;
6823;SDS011;58633;49.470;11.004;2023-05-07T07:38:10;8.32;;;7.07;;
6823;SDS011;58633;49.470;11.004;2023-05-07T07:40:36;6.40;;;5.80;;
6823;SDS011;58633;49.470;11.004;2023-05-07T07:43:02;7.45;;;5.47;;
6823;SDS011;58633;49.470;11.004;2023-05-07T07:45:28;6.78;;;5.50;;
6823;SDS011;58633;49.470;11.004;2023-05-07T07:47:54;6.70;;;5.60;;
6823;SDS011;58633;49.470;11.004;2023-05-07T07:50:19;6.10;;;5.50;;
6823;SDS011;58633;49.470;11.004;2023-05-07T07:52:45;6.35;;;5.75;;
6823;SDS011;58633;49.470;11.004;2023-05-07T07:55:11;6.72;;;5.93;;
6823;SDS011;58633;49.470;11.004;2023-05-07T07:57:37;5.90;;;5.40;;
6823;SDS011;58633;49.470;11.004;2023-05-07T08:00:02;7.28;;;5.30;;
6823;SDS011;58633;49.470;11.004;2023-05-07T08:02:28;6.18;;;5.45;;
6823;SDS011;58633;49.470;11.004;2023-05-07T08:04:55;6.25;;;5.63;;
6823;SDS011;58633;49.470;11.004;2023-05-07T08:07:21;5.65;;;5.13;;
6823;SDS011;58633;49.470;11.004;2023-05-07T08:09:47;6.80;;;5.45;;
6823;SDS011;58633;49.470;11.004;2023-05-07T08:12:13;5.82;;;5.22;;
6823;SDS011;58633;49.470;11.004;2023-05-07T08:14:39;5.72;;;5.15;;
6823;SDS011;58633;49.470;11.004;2023-05-07T08:17:05;5.97;;;5.32;;
6823;SDS011;58633;49.470;11.004;2023-05-07T08:19:30;5.88;;;4.88;;
6823;SDS011;58633;49.470;11.004;2023-05-07T08:21:56;5.20;;;4.70;;
6823;SDS011;58633;49.470;11.004;2023-05-07T08:24:22;6.05;;;5.45;;
6823;SDS011;58633;49.470;11.004;2023-05-07T08:26:47;5.78;;;5.05;;
6823;SDS011;58633;49.470;11.004;2023-05-07T08:29:13;6.82;;;5.78;;
6823;SDS011;58633;49.470;11.004;2023-05-07T08:31:38;5.25;;;4.85;;
6823;SDS011;58633;49.470;11.004;2023-05-07T08:34:04;6.05;;;4.72;;
6823;SDS011;58633;49.470;11.004;2023-05-07T08:36:30;6.30;;;5.25;;
6823;SDS011;58633;49.470;11.004;2023-05-07T08:38:55;9.75;;;5.60;;
6823;SDS011;58633;49.470;11.004;2023-05-07T08:41:21;5.90;;;5.30;;
6823;SDS011;58633;49.470;11.004;2023-05-07T08:43:48;5.60;;;5.10;;
6823;SDS011;58633;49.470;11.004;2023-05-07T08:46:18;5.07;;;4.60;;
6823;SDS011;58633;49.470;11.004;2023-05-07T08:48:48;5.03;;;4.60;;
6823;SDS011;58633;49.470;11.004;2023-05-07T08:51:16;7.10;;;4.80;;
6823;SDS011;58633;49.470;11.004;2023-05-07T08:53:46;5.82;;;5.22;;
6823;SDS011;58633;49.470;11.004;2023-05-07T08:56:16;5.25;;;4.75;;
6823;SDS011;58633;49.470;11.004;2023-05-07T08:58:42;5.85;;;5.30;;
6823;SDS011;58633;49.470;11.004;2023-05-07T09:01:09;5.32;;;4.82;;
6823;SDS011;58633;49.470;11.004;2023-05-07T09:03:42;5.50;;;5.00;;
6823;SDS011;58633;49.470;11.004;2023-05-07T09:06:10;4.85;;;4.45;;
6823;SDS011;58633;49.470;11.004;2023-05-07T09:08:35;5.60;;;5.10;;
6823;SDS011;58633;49.470;11.004;2023-05-07T09:11:01;8.13;;;4.90;;
6823;SDS011;58633;49.470;11.004;2023-05-07T09:13:27;4.95;;;4.50;;
6823;SDS011;58633;49.470;11.004;2023-05-07T09:15:53;5.03;;;4.60;;
6823;SDS011;58633;49.470;11.004;2023-05-07T09:18:20;4.78;;;4.18;;
6823;SDS011;58633;49.470;11.004;2023-05-07T09:20:45;4.88;;;4.38;;
6823;SDS011;58633;49.470;11.004;2023-05-07T09:23:11;5.50;;;4.40;;
6823;SDS011;58633;49.470;11.004;2023-05-07T09:25:37;5.85;;;5.00;;
6823;SDS011;58633;49.470;11.004;2023-05-07T09:28:03;5.20;;;4.70;;
6823;SDS011;58633;49.470;11.004;2023-05-07T09:30:31;7.30;;;4.63;;
6823;SDS011;58633;49.470;11.004;2023-05-07T09:32:58;5.20;;;4.70;;
6823;SDS011;58633;49.470;11.004;2023-05-07T09:35:25;5.53;;;4.22;;
6823;SDS011;58633;49.470;11.004;2023-05-07T09:37:54;5.35;;;4.43;;
6823;SDS011;58633;49.470;11.004;2023-05-07T09:40:25;5.65;;;4.95;;
6823;SDS011;58633;49.470;11.004;2023-05-07T09:42:52;4.43;;;4.00;;
6823;SDS011;58633;49.470;11.004;2023-05-07T09:45:22;5.90;;;4.43;;
6823;SDS011;58633;49.470;11.004;2023-05-07T09:47:53;6.10;;;4.53;;
6823;SDS011;58633;49.470;11.004;2023-05-07T09:50:21;4.57;;;4.18;;
6823;SDS011;58633;49.470;11.004;2023-05-07T09:52:52;4.72;;;4.40;;
6823;SDS011;58633;49.470;11.004;2023-05-07T09:55:20;4.65;;;4.30;;
6823;SDS011;58633;49.470;11.004;2023-05-07T09:57:45;5.35;;;4.38;;
6823;SDS011;58633;49.470;11.004;2023-05-07T10:00:15;4.60;;;4.20;;
6823;SDS011;58633;49.470;11.004;2023-05-07T10:02:42;5.78;;;4.10;;
6823;SDS011;58633;49.470;11.004;2023-05-07T10:05:13;4.78;;;4.07;;
6823;SDS011;58633;49.470;11.004;2023-05-07T10:07:40;4.95;;;4.20;;
6823;SDS011;58633;49.470;11.004;2023-05-07T10:10:06;5.32;;;4.32;;
6823;SDS011;58633;49.470;11.004;2023-05-07T10:12:32;6.38;;;4.50;;
6823;SDS011;58633;49.470;11.004;2023-05-07T10:15:04;6.57;;;5.40;;
6823;SDS011;58633;49.470;11.004;2023-05-07T10:17:31;4.72;;;4.32;;
6823;SDS011;58633;49.470;11.004;2023-05-07T10:19:58;4.68;;;4.20;;
6823;SDS011;58633;49.470;11.004;2023-05-07T10:22:23;6.10;;;4.97;;
6823;SDS011;58633;49.470;11.004;2023-05-07T10:24:52;6.57;;;5.30;;
6823;SDS011;58633;49.470;11.004;2023-05-07T10:27:21;8.40;;;5.63;;
6823;SDS011;58633;49.470;11.004;2023-05-07T10:30:00;6.30;;;4.57;;
6823;SDS011;58633;49.470;11.004;2023-05-07T10:35:45;3.90;;;3.60;;
6823;SDS011;58633;49.470;11.004;2023-05-07T10:38:05;4.70;;;3.70;;
6823;SDS011;58633;49.470;11.004;2023-05-07T10:40:31;5.60;;;3.90;;
6823;SDS011;58633;49.470;11.004;2023-05-07T10:42:58;4.35;;;3.95;;
6823;SDS011;58633;49.470;11.004;2023-05-07T10:45:26;3.85;;;3.38;;
6823;SDS011;58633;49.470;11.004;2023-05-07T10:48:11;3.60;;;3.30;;
6823;SDS011;58633;49.470;11.004;2023-05-07T10:50:42;5.47;;;3.75;;
6823;SDS011;58633;49.470;11.004;2023-05-07T10:55:44;5.65;;;3.47;;
6823;SDS011;58633;49.470;11.004;2023-05-07T10:58:23;3.45;;;3.15;;
6823;SDS011;58633;49.470;11.004;2023-05-07T11:00:55;3.80;;;3.10;;
6823;SDS011;58633;49.470;11.004;2023-05-07T11:03:25;3.40;;;3.00;;
6823;SDS011;58633;49.470;11.004;2023-05-07T11:06:11;4.10;;;3.67;;
6823;SDS011;58633;49.470;11.004;2023-05-07T11:09:11;3.40;;;3.10;;
6823;SDS011;58633;49.470;11.004;2023-05-07T11:11:49;3.13;;;2.83;;
6823;SDS011;58633;49.470;11.004;2023-05-07T11:17:11;3.25;;;2.95;;
6823;SDS011;58633;49.470;11.004;2023-05-07T11:19:53;3.08;;;2.88;;
6823;SDS011;58633;49.470;11.004;2023-05-07T11:22:38;3.28;;;3.00;;
6823;SDS011;58633;49.470;11.004;2023-05-07T11:25:07;2.95;;;2.75;;
6823;SDS011;58633;49.470;11.004;2023-05-07T11:27:33;2.70;;;2.50;;
6823;SDS011;58633;49.470;11.004;2023-05-07T11:29:58;3.72;;;2.92;;
6823;SDS011;58633;49.470;11.004;2023-05-07T11:32:26;2.55;;;2.45;;
6823;SDS011;58633;49.470;11.004;2023-05-07T11:34:54;3.22;;;2.92;;
6823;SDS011;58633;49.470;11.004;2023-05-07T11:37:21;3.40;;;3.10;;
6823;SDS011;58633;49.470;11.004;2023-05-07T11:39:47;3.30;;;2.97;;
6823;SDS011;58633;49.470;11.004;2023-05-07T11:42:29;3.15;;;2.95;;
6823;SDS011;58633;49.470;11.004;2023-05-07T11:44:58;3.05;;;2.80;;
6823;SDS011;58633;49.470;11.004;2023-05-07T11:47:25;3.20;;;3.00;;
6823;SDS011;58633;49.470;11.004;2023-05-07T11:49:52;2.90;;;2.70;;
6823;SDS011;58633;49.470;11.004;2023-05-07T11:52:18;3.78;;;2.80;;
6823;SDS011;58633;49.470;11.004;2023-05-07T11:54:52;4.03;;;2.63;;
6823;SDS011;58633;49.470;11.004;2023-05-07T11:57:19;5.15;;;3.10;;
6823;SDS011;58633;49.470;11.004;2023-05-07T11:59:46;3.55;;;3.05;;
6823;SDS011;58633;49.470;11.004;2023-05-07T12:02:14;3.28;;;2.47;;
6823;SDS011;58633;49.470;11.004;2023-05-07T12:04:43;3.47;;;3.17;;
6823;SDS011;58633;49.470;11.004;2023-05-07T12:07:12;3.25;;;2.90;;
6823;SDS011;58633;49.470;11.004;2023-05-07T12:09:42;3.55;;;2.70;;
6823;SDS011;58633;49.470;11.004;2023-05-07T12:12:08;2.58;;;2.38;;
6823;SDS011;58633;49.470;11.004;2023-05-07T12:14:38;2.85;;;2.10;;
6823;SDS011;58633;49.470;11.004;2023-05-07T12:17:05;2.55;;;2.38;;
6823;SDS011;58633;49.470;11.004;2023-05-07T12:19:35;4.80;;;3.53;;
6823;SDS011;58633;49.470;11.004;2023-05-07T12:22:04;3.30;;;3.10;;
6823;SDS011;58633;49.470;11.004;2023-05-07T12:24:42;3.03;;;2.83;;
6823;SDS011;58633;49.470;11.004;2023-05-07T12:27:09;4.72;;;2.50;;
6823;SDS011;58633;49.470;11.004;2023-05-07T12:29:34;3.85;;;2.90;;
6823;SDS011;58633;49.470;11.004;2023-05-07T12:32:00;4.15;;;3.40;;
6823;SDS011;58633;49.470;11.004;2023-05-07T12:34:26;2.80;;;2.60;;
6823;SDS011;58633;49.470;11.004;2023-05-07T12:36:52;3.97;;;3.20;;
6823;SDS011;58633;49.470;11.004;2023-05-07T12:39:18;3.17;;;2.88;;
6823;SDS011;58633;49.470;11.004;2023-05-07T12:41:57;3.38;;;3.17;;
6823;SDS011;58633;49.470;11.004;2023-05-07T12:44:25;4.65;;;4.25;;
6823;SDS011;58633;49.470;11.004;2023-05-07T12:46:53;2.90;;;2.70;;
6823;SDS011;58633;49.470;11.004;2023-05-07T12:49:19;4.00;;;3.60;;
6823;SDS011;58633;49.470;11.004;2023-05-07T12:51:46;4.50;;;4.07;;
6823;SDS011;58633;49.470;11.004;2023-05-07T12:54:13;4.50;;;3.83;;
6823;SDS011;58633;49.470;11.004;2023-05-07T12:56:59;3.95;;;3.65;;
6823;SDS011;58633;49.470;11.004;2023-05-07T12:59:39;3.35;;;3.05;;
6823;SDS011;58633;49.470;11.004;2023-05-07T13:02:06;3.30;;;3.10;;
6823;SDS011;58633;49.470;11.004;2023-05-07T13:04:32;4.45;;;3.08;;
6823;SDS011;58633;49.470;11.004;2023-05-07T13:06:58;3.28;;;2.90;;
6823;SDS011;58633;49.470;11.004;2023-05-07T13:09:24;3.70;;;2.78;;
6823;SDS011;58633;49.470;11.004;2023-05-07T13:11:50;3.17;;;2.88;;
6823;SDS011;58633;49.470;11.004;2023-05-07T13:14:16;4.22;;;3.13;;
6823;SDS011;58633;49.470;11.004;2023-05-07T13:16:42;2.88;;;2.67;;
6823;SDS011;58633;49.470;11.004;2023-05-07T13:19:08;2.97;;;2.78;;
6823;SDS011;58633;49.470;11.004;2023-05-07T13:21:34;2.50;;;2.40;;
6823;SDS011;58633;49.470;11.004;2023-05-07T13:24:00;3.08;;;2.47;;
6823;SDS011;58633;49.470;11.004;2023-05-07T13:26:25;2.67;;;2.47;;
6823;SDS011;58633;49.470;11.004;2023-05-07T13:28:51;3.55;;;2.78;;
6823;SDS011;58633;49.470;11.004;2023-05-07T13:31:18;2.85;;;2.65;;
6823;SDS011;58633;49.470;11.004;2023-05-07T13:33:45;2.30;;;2.20;;
6823;SDS011;58633;49.470;11.004;2023-05-07T13:36:10;2.33;;;2.20;;
6823;SDS011;58633;49.470;11.004;2023-05-07T13:38:36;2.95;;;2.40;;
6823;SDS011;58633;49.470;11.004;2023-05-07T13:41:01;3.22;;;2.92;;
6823;SDS011;58633;49.470;11.004;2023-05-07T13:43:27;2.70;;;2.40;;
6823;SDS011;58633;49.470;11.004;2023-05-07T13:45:52;2.70;;;2.20;;
6823;SDS011;58633;49.470;11.004;2023-05-07T13:48:18;3.35;;;3.05;;
6823;SDS011;58633;49.470;11.004;2023-05-07T13:50:43;2.58;;;2.38;;
6823;SDS011;58633;49.470;11.004;2023-05-07T13:53:09;2.53;;;2.33;;
6823;SDS011;58633;49.470;11.004;2023-05-07T13:55:35;2.50;;;2.30;;
6823;SDS011;58633;49.470;11.004;2023-05-07T13:58:01;3.33;;;2.95;;
6823;SDS011;58633;49.470;11.004;2023-05-07T14:00:28;3.58;;;3.28;;
6823;SDS011;58633;49.470;11.004;2023-05-07T14:02:54;2.95;;;2.75;;
6823;SDS011;58633;49.470;11.004;2023-05-07T14:05:20;3.00;;;2.80;;
6823;SDS011;58633;49.470;11.004;2023-05-07T14:07:48;4.40;;;4.00;;
6823;SDS011;58633;49.470;11.004;2023-05-07T14:10:16;2.80;;;2.60;;
6823;SDS011;58633;49.470;11.004;2023-05-07T14:12:43;2.58;;;2.38;;
6823;SDS011;58633;49.470;11.004;2023-05-07T14:15:09;2.60;;;2.40;;
6823;SDS011;58633;49.470;11.004;2023-05-07T14:17:36;3.28;;;2.97;;
6823;SDS011;58633;49.470;11.004;2023-05-07T14:20:02;2.65;;;2.45;;
6823;SDS011;58633;49.470;11.004;2023-05-07T14:22:28;2.60;;;2.40;;
6823;SDS011;58633;49.470;11.004;2023-05-07T14:24:53;2.70;;;2.45;;
6823;SDS011;58633;49.470;11.004;2023-05-07T14:27:19;2.95;;;2.75;;
6823;SDS011;58633;49.470;11.004;2023-05-07T14:29:44;2.50;;;2.40;;
6823;SDS011;58633;49.470;11.004;2023-05-07T14:32:10;2.92;;;2.72;;
6823;SDS011;58633;49.470;11.004;2023-05-07T14:34:36;2.70;;;2.42;;
6823;SDS011;58633;49.470;11.004;2023-05-07T14:37:02;2.63;;;2.42;;
6823;SDS011;58633;49.470;11.004;2023-05-07T14:39:28;2.50;;;2.30;;
6823;SDS011;58633;49.470;11.004;2023-05-07T14:41:54;4.22;;;2.50;;
6823;SDS011;58633;49.470;11.004;2023-05-07T14:44:20;4.13;;;3.00;;
6823;SDS011;58633;49.470;11.004;2023-05-07T14:46:46;4.38;;;3.15;;
6823;SDS011;58633;49.470;11.004;2023-05-07T14:49:13;3.30;;;3.08;;
6823;SDS011;58633;49.470;11.004;2023-05-07T14:51:42;3.28;;;3.03;;
6823;SDS011;58633;49.470;11.004;2023-05-07T14:54:11;3.40;;;3.10;;